Terminal Aerodrome Forecast
Issued by NWS

Home | Current Version | Previous Version | Text Only | Print | Product List | Glossary On
Versions: 1 2 3 4 5 6 7 8 9 10 11 12 13
000
FTUS41 KPBZ 202326
TAFBVI
TAF
KBVI 202326Z 2100/2124 24006KT P6SM BKN250
     FM210800 26005KT 2SM BR SCT150
     FM211300 29004KT P6SM SCT150
      AMD NOT SKED 2102/2112=

USA.gov is the U.S. government's official web portal to all federal, state and local government web resources and services.